sensor_id;sensor_type;location;lat;lon;timestamp;pressure;altitude;pressure_sealevel;temperature;humidity
40794;BME280;26502;51.886;15.604;2023-04-26T00:03:03;100383.83;;;3.42;60.18
40794;BME280;26502;51.886;15.604;2023-04-26T00:08:12;100389.66;;;3.37;60.37
40794;BME280;26502;51.886;15.604;2023-04-26T00:13:19;100390.36;;;3.38;60.53
40794;BME280;26502;51.886;15.604;2023-04-26T00:18:25;100396.92;;;3.26;60.61
40794;BME280;26502;51.886;15.604;2023-04-26T00:23:32;100400.73;;;3.11;60.86
40794;BME280;26502;51.886;15.604;2023-04-26T00:28:40;100401.12;;;3.04;60.99
40794;BME280;26502;51.886;15.604;2023-04-26T00:33:46;100408.77;;;2.86;61.09
40794;BME280;26502;51.886;15.604;2023-04-26T00:38:52;100410.77;;;2.69;61.36
40794;BME280;26502;51.886;15.604;2023-04-26T00:43:59;100410.60;;;2.68;61.64
40794;BME280;26502;51.886;15.604;2023-04-26T00:49:05;100413.90;;;2.72;61.73
40794;BME280;26502;51.886;15.604;2023-04-26T00:54:12;100412.33;;;2.71;61.82
40794;BME280;26502;51.886;15.604;2023-04-26T00:59:19;100418.66;;;2.69;61.95
40794;BME280;26502;51.886;15.604;2023-04-26T01:04:25;100418.16;;;2.63;62.10
40794;BME280;26502;51.886;15.604;2023-04-26T01:09:34;100419.92;;;2.61;62.45
40794;BME280;26502;51.886;15.604;2023-04-26T01:14:41;100416.85;;;2.80;62.54
40794;BME280;26502;51.886;15.604;2023-04-26T01:19:51;100419.55;;;2.68;62.59
40794;BME280;26502;51.886;15.604;2023-04-26T01:24:58;100419.39;;;2.64;62.77
40794;BME280;26502;51.886;15.604;2023-04-26T01:30:09;100421.30;;;2.63;62.98
40794;BME280;26502;51.886;15.604;2023-04-26T01:35:16;100420.81;;;2.55;63.05
40794;BME280;26502;51.886;15.604;2023-04-26T01:40:24;100421.34;;;2.56;63.20
40794;BME280;26502;51.886;15.604;2023-04-26T01:45:31;100431.89;;;2.46;63.09
40794;BME280;26502;51.886;15.604;2023-04-26T01:50:56;100438.23;;;2.37;63.34
40794;BME280;26502;51.886;15.604;2023-04-26T01:56:03;100436.13;;;2.33;63.63
40794;BME280;26502;51.886;15.604;2023-04-26T02:01:10;100436.33;;;2.26;63.60
40794;BME280;26502;51.886;15.604;2023-04-26T02:06:16;100439.14;;;2.19;63.80
40794;BME280;26502;51.886;15.604;2023-04-26T02:11:22;100439.86;;;2.15;63.96
40794;BME280;26502;51.886;15.604;2023-04-26T02:16:30;100445.82;;;2.09;64.01
40794;BME280;26502;51.886;15.604;2023-04-26T02:27:10;100444.41;;;2.06;64.52
40794;BME280;26502;51.886;15.604;2023-04-26T02:32:17;100442.52;;;1.96;64.66
40794;BME280;26502;51.886;15.604;2023-04-26T02:37:23;100445.48;;;1.85;64.77
40794;BME280;26502;51.886;15.604;2023-04-26T02:42:29;100444.27;;;1.79;65.05
40794;BME280;26502;51.886;15.604;2023-04-26T02:47:35;100440.77;;;1.79;65.27
40794;BME280;26502;51.886;15.604;2023-04-26T02:52:42;100445.15;;;1.67;64.93
40794;BME280;26502;51.886;15.604;2023-04-26T02:57:49;100448.29;;;1.51;65.37
40794;BME280;26502;51.886;15.604;2023-04-26T03:02:56;100450.38;;;1.41;65.92
40794;BME280;26502;51.886;15.604;2023-04-26T03:08:03;100448.45;;;1.36;66.19
40794;BME280;26502;51.886;15.604;2023-04-26T03:13:10;100456.30;;;1.30;66.76
40794;BME280;26502;51.886;15.604;2023-04-26T03:18:17;100457.71;;;1.34;66.82
40794;BME280;26502;51.886;15.604;2023-04-26T03:23:24;100461.74;;;1.36;66.97
40794;BME280;26502;51.886;15.604;2023-04-26T03:28:30;100464.02;;;1.33;66.94
40794;BME280;26502;51.886;15.604;2023-04-26T03:33:37;100471.36;;;1.31;67.17
40794;BME280;26502;51.886;15.604;2023-04-26T03:38:43;100470.48;;;1.36;67.26
40794;BME280;26502;51.886;15.604;2023-04-26T03:43:50;100477.84;;;1.35;67.07
40794;BME280;26502;51.886;15.604;2023-04-26T03:48:57;100483.25;;;1.28;67.29
40794;BME280;26502;51.886;15.604;2023-04-26T03:54:04;100490.23;;;1.21;67.43
40794;BME280;26502;51.886;15.604;2023-04-26T03:59:10;100489.69;;;1.16;67.63
40794;BME280;26502;51.886;15.604;2023-04-26T04:04:17;100490.04;;;1.15;67.75
40794;BME280;26502;51.886;15.604;2023-04-26T04:09:24;100494.79;;;1.25;68.09
40794;BME280;26502;51.886;15.604;2023-04-26T04:14:31;100500.40;;;1.29;68.01
40794;BME280;26502;51.886;15.604;2023-04-26T04:19:38;100498.83;;;1.34;68.28
40794;BME280;26502;51.886;15.604;2023-04-26T04:24:46;100502.35;;;1.43;68.25
40794;BME280;26502;51.886;15.604;2023-04-26T04:29:53;100509.36;;;1.49;68.40
40794;BME280;26502;51.886;15.604;2023-04-26T04:34:59;100510.44;;;1.62;68.57
40794;BME280;26502;51.886;15.604;2023-04-26T04:40:08;100516.05;;;1.69;68.46
40794;BME280;26502;51.886;15.604;2023-04-26T04:45:16;100516.75;;;1.71;68.60
40794;BME280;26502;51.886;15.604;2023-04-26T04:50:23;100523.23;;;1.73;68.97
40794;BME280;26502;51.886;15.604;2023-04-26T04:55:30;100525.00;;;1.80;69.75
40794;BME280;26502;51.886;15.604;2023-04-26T05:00:37;100531.84;;;1.90;70.64
40794;BME280;26502;51.886;15.604;2023-04-26T05:06:06;100537.44;;;2.02;70.99
40794;BME280;26502;51.886;15.604;2023-04-26T05:11:13;100535.87;;;2.17;71.12
40794;BME280;26502;51.886;15.604;2023-04-26T05:16:19;100534.80;;;2.36;71.24
40794;BME280;26502;51.886;15.604;2023-04-26T05:21:26;100540.02;;;2.56;71.37
40794;BME280;26502;51.886;15.604;2023-04-26T05:26:33;100545.58;;;2.81;71.29
40794;BME280;26502;51.886;15.604;2023-04-26T05:31:58;100548.80;;;3.15;71.08
40794;BME280;26502;51.886;15.604;2023-04-26T05:37:32;100548.65;;;3.47;70.62
40794;BME280;26502;51.886;15.604;2023-04-26T05:42:39;100552.23;;;3.67;70.29
40794;BME280;26502;51.886;15.604;2023-04-26T05:47:46;100558.25;;;3.84;69.79
40794;BME280;26502;51.886;15.604;2023-04-26T05:52:53;100557.53;;;4.10;69.63
40794;BME280;26502;51.886;15.604;2023-04-26T05:57:59;100561.56;;;4.33;69.14
40794;BME280;26502;51.886;15.604;2023-04-26T06:03:05;100569.64;;;4.54;68.79
40794;BME280;26502;51.886;15.604;2023-04-26T06:08:12;100561.30;;;4.63;67.95
40794;BME280;26502;51.886;15.604;2023-04-26T06:13:18;100563.58;;;4.80;68.13
40794;BME280;26502;51.886;15.604;2023-04-26T06:18:24;100558.52;;;5.08;67.46
40794;BME280;26502;51.886;15.604;2023-04-26T06:23:31;100556.55;;;5.26;67.28
40794;BME280;26502;51.886;15.604;2023-04-26T06:28:38;100561.38;;;5.33;66.62
40794;BME280;26502;51.886;15.604;2023-04-26T06:33:44;100555.05;;;5.46;66.07
40794;BME280;26502;51.886;15.604;2023-04-26T06:38:51;100554.83;;;5.62;65.68
40794;BME280;26502;51.886;15.604;2023-04-26T06:43:57;100558.37;;;5.74;64.99
40794;BME280;26502;51.886;15.604;2023-04-26T06:49:09;100554.77;;;5.78;64.26
40794;BME280;26502;51.886;15.604;2023-04-26T06:54:15;100561.41;;;5.94;63.91
40794;BME280;26502;51.886;15.604;2023-04-26T06:59:21;100562.09;;;5.96;62.50
40794;BME280;26502;51.886;15.604;2023-04-26T07:04:27;100563.19;;;6.18;62.23
40794;BME280;26502;51.886;15.604;2023-04-26T07:09:34;100565.09;;;6.42;62.14
40794;BME280;26502;51.886;15.604;2023-04-26T07:14:40;100566.34;;;6.71;61.19
40794;BME280;26502;51.886;15.604;2023-04-26T07:19:47;100561.83;;;6.76;60.97
40794;BME280;26502;51.886;15.604;2023-04-26T07:24:53;100566.92;;;6.88;60.26
40794;BME280;26502;51.886;15.604;2023-04-26T07:30:01;100568.81;;;6.99;60.16
40794;BME280;26502;51.886;15.604;2023-04-26T07:35:09;100569.65;;;7.28;59.59
40794;BME280;26502;51.886;15.604;2023-04-26T07:40:19;100574.70;;;7.40;59.44
40794;BME280;26502;51.886;15.604;2023-04-26T07:45:26;100580.89;;;7.31;58.83
40794;BME280;26502;51.886;15.604;2023-04-26T07:50:34;100576.43;;;7.50;58.38
40794;BME280;26502;51.886;15.604;2023-04-26T07:55:40;100580.88;;;7.89;58.19
40794;BME280;26502;51.886;15.604;2023-04-26T08:00:47;100586.64;;;7.51;55.71
40794;BME280;26502;51.886;15.604;2023-04-26T08:05:53;100587.04;;;7.41;55.95
40794;BME280;26502;51.886;15.604;2023-04-26T08:10:59;100588.48;;;7.49;56.23
40794;BME280;26502;51.886;15.604;2023-04-26T08:16:06;100590.75;;;7.33;55.73
40794;BME280;26502;51.886;15.604;2023-04-26T08:21:12;100590.58;;;7.49;56.03
40794;BME280;26502;51.886;15.604;2023-04-26T08:26:19;100587.97;;;7.88;54.91
40794;BME280;26502;51.886;15.604;2023-04-26T08:31:25;100585.86;;;8.10;54.19
40794;BME280;26502;51.886;15.604;2023-04-26T08:36:36;100588.96;;;7.99;53.54
40794;BME280;26502;51.886;15.604;2023-04-26T08:41:48;100591.84;;;7.96;53.70
40794;BME280;26502;51.886;15.604;2023-04-26T08:46:59;100589.23;;;8.17;52.09
40794;BME280;26502;51.886;15.604;2023-04-26T08:52:09;100589.11;;;8.14;51.71
40794;BME280;26502;51.886;15.604;2023-04-26T08:57:16;100584.94;;;8.63;51.89
40794;BME280;26502;51.886;15.604;2023-04-26T09:02:23;100585.20;;;8.80;51.25
40794;BME280;26502;51.886;15.604;2023-04-26T09:07:33;100594.19;;;8.75;51.39
40794;BME280;26502;51.886;15.604;2023-04-26T09:12:40;100596.81;;;8.56;50.57
40794;BME280;26502;51.886;15.604;2023-04-26T09:17:47;100595.72;;;8.34;49.49
40794;BME280;26502;51.886;15.604;2023-04-26T09:23:04;100602.02;;;8.08;49.83
40794;BME280;26502;51.886;15.604;2023-04-26T09:28:25;100596.91;;;8.22;50.12
40794;BME280;26502;51.886;15.604;2023-04-26T09:33:31;100591.39;;;8.74;49.58
40794;BME280;26502;51.886;15.604;2023-04-26T09:38:43;100597.88;;;8.70;47.92
40794;BME280;26502;51.886;15.604;2023-04-26T09:43:51;100585.92;;;9.06;47.49
40794;BME280;26502;51.886;15.604;2023-04-26T09:49:03;100585.80;;;9.23;47.96
40794;BME280;26502;51.886;15.604;2023-04-26T09:54:10;100594.27;;;9.67;47.80
40794;BME280;26502;51.886;15.604;2023-04-26T09:59:16;100587.96;;;9.88;47.45
40794;BME280;26502;51.886;15.604;2023-04-26T10:04:22;100590.67;;;9.51;46.80
40794;BME280;26502;51.886;15.604;2023-04-26T10:09:29;100590.05;;;9.36;46.86
40794;BME280;26502;51.886;15.604;2023-04-26T10:14:36;100593.88;;;9.13;46.20
40794;BME280;26502;51.886;15.604;2023-04-26T10:19:43;100587.40;;;9.17;46.21
40794;BME280;26502;51.886;15.604;2023-04-26T10:24:50;100590.88;;;9.12;46.00
40794;BME280;26502;51.886;15.604;2023-04-26T10:30:10;100587.61;;;9.70;45.97
40794;BME280;26502;51.886;15.604;2023-04-26T10:35:17;100591.34;;;10.16;44.85
40794;BME280;26502;51.886;15.604;2023-04-26T10:40:29;100596.70;;;9.57;43.64
40794;BME280;26502;51.886;15.604;2023-04-26T10:45:37;100605.87;;;9.22;45.03
40794;BME280;26502;51.886;15.604;2023-04-26T10:51:09;100610.48;;;9.14;45.05
40794;BME280;26502;51.886;15.604;2023-04-26T10:56:51;100617.65;;;8.99;44.69
40794;BME280;26502;51.886;15.604;2023-04-26T11:02:00;100618.23;;;9.10;45.06
40794;BME280;26502;51.886;15.604;2023-04-26T11:07:07;100610.98;;;9.22;44.54
40794;BME280;26502;51.886;15.604;2023-04-26T11:12:14;100617.09;;;9.19;44.63
40794;BME280;26502;51.886;15.604;2023-04-26T11:17:21;100612.94;;;9.35;45.24
40794;BME280;26502;51.886;15.604;2023-04-26T11:22:27;100612.50;;;9.68;45.18
40794;BME280;26502;51.886;15.604;2023-04-26T11:27:33;100614.66;;;9.73;44.90
40794;BME280;26502;51.886;15.604;2023-04-26T11:32:40;100617.17;;;9.54;44.87
40794;BME280;26502;51.886;15.604;2023-04-26T11:37:47;100624.44;;;9.23;44.42
40794;BME280;26502;51.886;15.604;2023-04-26T11:42:59;100626.13;;;8.93;44.34
40794;BME280;26502;51.886;15.604;2023-04-26T11:48:09;100630.19;;;8.94;44.38
40794;BME280;26502;51.886;15.604;2023-04-26T11:53:16;100627.00;;;9.20;44.25
40794;BME280;26502;51.886;15.604;2023-04-26T11:58:22;100622.14;;;9.42;43.22
40794;BME280;26502;51.886;15.604;2023-04-26T12:03:32;100629.00;;;9.31;43.40
40794;BME280;26502;51.886;15.604;2023-04-26T12:08:47;100631.89;;;9.36;43.70
40794;BME280;26502;51.886;15.604;2023-04-26T12:13:56;100636.61;;;9.38;43.79
40794;BME280;26502;51.886;15.604;2023-04-26T12:19:04;100648.71;;;9.23;43.34
40794;BME280;26502;51.886;15.604;2023-04-26T12:24:23;100645.35;;;9.23;43.81
40794;BME280;26502;51.886;15.604;2023-04-26T12:29:30;100641.98;;;9.09;43.78
40794;BME280;26502;51.886;15.604;2023-04-26T12:34:36;100642.73;;;9.21;44.12
40794;BME280;26502;51.886;15.604;2023-04-26T12:39:43;100635.73;;;9.50;44.61
40794;BME280;26502;51.886;15.604;2023-04-26T12:44:50;100634.91;;;9.96;43.71
40794;BME280;26502;51.886;15.604;2023-04-26T12:49:57;100634.35;;;9.91;43.87
40794;BME280;26502;51.886;15.604;2023-04-26T12:55:06;100640.50;;;9.81;43.89
40794;BME280;26502;51.886;15.604;2023-04-26T13:00:14;100648.41;;;9.53;43.75
40794;BME280;26502;51.886;15.604;2023-04-26T13:05:22;100656.95;;;9.33;43.79
40794;BME280;26502;51.886;15.604;2023-04-26T13:10:28;100666.10;;;9.16;43.54
40794;BME280;26502;51.886;15.604;2023-04-26T13:15:36;100668.88;;;9.17;43.81
40794;BME280;26502;51.886;15.604;2023-04-26T13:20:43;100669.02;;;9.32;43.76
40794;BME280;26502;51.886;15.604;2023-04-26T13:25:49;100655.03;;;9.51;43.67
40794;BME280;26502;51.886;15.604;2023-04-26T13:30:55;100655.67;;;10.01;43.70
40794;BME280;26502;51.886;15.604;2023-04-26T13:36:03;100642.59;;;10.89;41.82
40794;BME280;26502;51.886;15.604;2023-04-26T13:41:11;100642.39;;;11.05;41.75
40794;BME280;26502;51.886;15.604;2023-04-26T13:46:18;100650.30;;;11.18;42.02
40794;BME280;26502;51.886;15.604;2023-04-26T13:51:24;100659.08;;;11.00;41.41
40794;BME280;26502;51.886;15.604;2023-04-26T13:56:31;100679.58;;;10.26;40.29
40794;BME280;26502;51.886;15.604;2023-04-26T14:01:38;100693.10;;;9.71;41.35
40794;BME280;26502;51.886;15.604;2023-04-26T14:06:45;100692.65;;;9.30;42.26
40794;BME280;26502;51.886;15.604;2023-04-26T14:11:51;100689.63;;;9.30;42.73
40794;BME280;26502;51.886;15.604;2023-04-26T14:16:57;100685.30;;;9.96;42.99
40794;BME280;26502;51.886;15.604;2023-04-26T14:22:04;100679.56;;;9.80;42.96
40794;BME280;26502;51.886;15.604;2023-04-26T14:27:11;100685.42;;;10.15;43.43
40794;BME280;26502;51.886;15.604;2023-04-26T14:32:20;100680.45;;;10.33;42.92
40794;BME280;26502;51.886;15.604;2023-04-26T14:37:27;100682.98;;;9.90;42.56
40794;BME280;26502;51.886;15.604;2023-04-26T14:42:34;100682.02;;;9.62;43.08
40794;BME280;26502;51.886;15.604;2023-04-26T14:47:40;100686.45;;;9.68;43.04
40794;BME280;26502;51.886;15.604;2023-04-26T14:52:47;100684.92;;;10.26;42.49
40794;BME280;26502;51.886;15.604;2023-04-26T14:57:53;100690.34;;;10.35;41.82
40794;BME280;26502;51.886;15.604;2023-04-26T15:03:00;100692.45;;;10.29;41.62
40794;BME280;26502;51.886;15.604;2023-04-26T15:08:06;100689.31;;;10.39;41.09
40794;BME280;26502;51.886;15.604;2023-04-26T15:13:12;100687.65;;;10.58;40.98
40794;BME280;26502;51.886;15.604;2023-04-26T15:18:20;100688.25;;;10.22;41.31
40794;BME280;26502;51.886;15.604;2023-04-26T15:23:26;100688.58;;;10.11;41.58
40794;BME280;26502;51.886;15.604;2023-04-26T15:28:33;100694.86;;;9.78;41.68
40794;BME280;26502;51.886;15.604;2023-04-26T15:33:39;100704.48;;;9.57;41.96
40794;BME280;26502;51.886;15.604;2023-04-26T15:38:46;100703.95;;;9.58;42.33
40794;BME280;26502;51.886;15.604;2023-04-26T15:43:55;100704.95;;;9.78;42.49
40794;BME280;26502;51.886;15.604;2023-04-26T15:49:01;100698.16;;;10.05;42.52
40794;BME280;26502;51.886;15.604;2023-04-26T15:54:08;100699.71;;;10.01;42.51
40794;BME280;26502;51.886;15.604;2023-04-26T15:59:14;100698.13;;;9.81;42.50
40794;BME280;26502;51.886;15.604;2023-04-26T16:04:21;100698.73;;;9.97;42.86
40794;BME280;26502;51.886;15.604;2023-04-26T16:09:28;100697.05;;;10.30;42.67
40794;BME280;26502;51.886;15.604;2023-04-26T16:14:35;100690.86;;;10.85;42.65
40794;BME280;26502;51.886;15.604;2023-04-26T16:19:41;100690.87;;;11.06;42.33
40794;BME280;26502;51.886;15.604;2023-04-26T16:24:48;100689.42;;;11.07;42.08
40794;BME280;26502;51.886;15.604;2023-04-26T16:29:55;100692.60;;;10.76;41.19
40794;BME280;26502;51.886;15.604;2023-04-26T16:35:01;100696.20;;;10.58;41.34
40794;BME280;26502;51.886;15.604;2023-04-26T16:40:10;100703.10;;;10.17;41.45
40794;BME280;26502;51.886;15.604;2023-04-26T16:45:17;100704.45;;;10.02;41.86
40794;BME280;26502;51.886;15.604;2023-04-26T16:50:23;100707.59;;;9.98;42.07
40794;BME280;26502;51.886;15.604;2023-04-26T16:55:30;100710.30;;;9.65;41.58
40794;BME280;26502;51.886;15.604;2023-04-26T17:00:39;100721.09;;;9.34;41.51
40794;BME280;26502;51.886;15.604;2023-04-26T17:05:46;100727.19;;;9.24;42.06
40794;BME280;26502;51.886;15.604;2023-04-26T17:10:52;100727.44;;;9.15;42.07
40794;BME280;26502;51.886;15.604;2023-04-26T17:15:59;100734.38;;;9.06;42.35
40794;BME280;26502;51.886;15.604;2023-04-26T17:21:06;100740.17;;;8.94;42.63
40794;BME280;26502;51.886;15.604;2023-04-26T17:26:12;100744.35;;;8.97;42.97
40794;BME280;26502;51.886;15.604;2023-04-26T17:31:20;100743.45;;;8.98;43.23
40794;BME280;26502;51.886;15.604;2023-04-26T17:36:27;100749.52;;;8.88;43.25
40794;BME280;26502;51.886;15.604;2023-04-26T17:41:33;100749.41;;;8.70;43.59
40794;BME280;26502;51.886;15.604;2023-04-26T17:46:40;100749.89;;;8.73;44.02
40794;BME280;26502;51.886;15.604;2023-04-26T17:51:46;100753.16;;;8.84;44.49
40794;BME280;26502;51.886;15.604;2023-04-26T17:56:52;100758.69;;;8.97;44.77
40794;BME280;26502;51.886;15.604;2023-04-26T18:01:59;100763.73;;;8.94;45.00
40794;BME280;26502;51.886;15.604;2023-04-26T18:07:05;100764.21;;;8.88;45.26
40794;BME280;26502;51.886;15.604;2023-04-26T18:12:12;100765.78;;;8.75;45.34
40794;BME280;26502;51.886;15.604;2023-04-26T18:17:18;100766.85;;;8.51;45.89
40794;BME280;26502;51.886;15.604;2023-04-26T18:22:24;100772.33;;;8.34;46.28
40794;BME280;26502;51.886;15.604;2023-04-26T18:27:31;100775.42;;;8.04;46.37
40794;BME280;26502;51.886;15.604;2023-04-26T18:32:38;100779.44;;;7.71;46.60
40794;BME280;26502;51.886;15.604;2023-04-26T18:37:45;100785.19;;;7.56;47.24
40794;BME280;26502;51.886;15.604;2023-04-26T18:42:51;100789.05;;;7.67;47.76
40794;BME280;26502;51.886;15.604;2023-04-26T18:47:57;100792.51;;;7.71;47.95
40794;BME280;26502;51.886;15.604;2023-04-26T18:53:04;100803.94;;;7.65;48.29
40794;BME280;26502;51.886;15.604;2023-04-26T18:58:10;100809.55;;;7.58;48.51
40794;BME280;26502;51.886;15.604;2023-04-26T19:03:16;100814.45;;;7.30;48.57
40794;BME280;26502;51.886;15.604;2023-04-26T19:08:23;100813.27;;;7.16;49.00
40794;BME280;26502;51.886;15.604;2023-04-26T19:13:30;100820.61;;;6.98;49.06
40794;BME280;26502;51.886;15.604;2023-04-26T19:18:37;100827.27;;;6.51;49.18
40794;BME280;26502;51.886;15.604;2023-04-26T19:23:44;100836.35;;;6.17;49.76
40794;BME280;26502;51.886;15.604;2023-04-26T19:28:50;100833.94;;;6.13;50.13
40794;BME280;26502;51.886;15.604;2023-04-26T19:33:56;100837.27;;;5.97;50.17
40794;BME280;26502;51.886;15.604;2023-04-26T19:39:03;100840.89;;;5.70;50.53
40794;BME280;26502;51.886;15.604;2023-04-26T19:44:09;100842.16;;;5.45;50.80
40794;BME280;26502;51.886;15.604;2023-04-26T19:49:17;100844.11;;;5.23;51.17
40794;BME280;26502;51.886;15.604;2023-04-26T19:54:24;100842.87;;;4.99;51.48
40794;BME280;26502;51.886;15.604;2023-04-26T19:59:30;100846.51;;;4.81;51.74
40794;BME280;26502;51.886;15.604;2023-04-26T20:04:37;100841.48;;;4.70;52.19
40794;BME280;26502;51.886;15.604;2023-04-26T20:09:43;100847.64;;;4.70;52.28
40794;BME280;26502;51.886;15.604;2023-04-26T20:14:50;100849.48;;;4.50;52.46
40794;BME280;26502;51.886;15.604;2023-04-26T20:19:56;100857.64;;;4.37;52.83
40794;BME280;26502;51.886;15.604;2023-04-26T20:25:05;100857.34;;;4.20;52.97
40794;BME280;26502;51.886;15.604;2023-04-26T20:30:12;100854.74;;;4.09;53.52
40794;BME280;26502;51.886;15.604;2023-04-26T20:35:19;100850.35;;;4.08;53.62
40794;BME280;26502;51.886;15.604;2023-04-26T20:40:25;100855.12;;;4.01;53.78
40794;BME280;26502;51.886;15.604;2023-04-26T20:45:32;100860.23;;;3.92;54.01
40794;BME280;26502;51.886;15.604;2023-04-26T20:50:39;100862.55;;;3.78;54.19
40794;BME280;26502;51.886;15.604;2023-04-26T20:55:45;100862.56;;;3.68;54.64
40794;BME280;26502;51.886;15.604;2023-04-26T21:00:52;100864.84;;;3.67;54.89
40794;BME280;26502;51.886;15.604;2023-04-26T21:05:59;100864.84;;;3.68;55.14
40794;BME280;26502;51.886;15.604;2023-04-26T21:11:05;100872.58;;;3.71;55.26
40794;BME280;26502;51.886;15.604;2023-04-26T21:16:12;100873.63;;;3.73;55.55
40794;BME280;26502;51.886;15.604;2023-04-26T21:21:19;100875.57;;;3.68;55.70
40794;BME280;26502;51.886;15.604;2023-04-26T21:26:26;100874.69;;;3.64;56.05
40794;BME280;26502;51.886;15.604;2023-04-26T21:31:32;100877.86;;;3.54;56.23
40794;BME280;26502;51.886;15.604;2023-04-26T21:36:38;100879.60;;;3.45;56.38
40794;BME280;26502;51.886;15.604;2023-04-26T21:41:44;100881.02;;;3.43;56.50
40794;BME280;26502;51.886;15.604;2023-04-26T21:46:51;100885.41;;;3.38;56.55
40794;BME280;26502;51.886;15.604;2023-04-26T21:51:57;100883.46;;;3.37;56.84
40794;BME280;26502;51.886;15.604;2023-04-26T21:57:03;100890.48;;;3.28;56.86
40794;BME280;26502;51.886;15.604;2023-04-26T22:02:10;100888.70;;;3.04;56.94
40794;BME280;26502;51.886;15.604;2023-04-26T22:07:17;100896.36;;;2.81;57.16
40794;BME280;26502;51.886;15.604;2023-04-26T22:12:23;100901.73;;;2.64;57.25
40794;BME280;26502;51.886;15.604;2023-04-26T22:17:31;100905.75;;;2.56;57.65
40794;BME280;26502;51.886;15.604;2023-04-26T22:22:37;100908.91;;;2.59;57.77
40794;BME280;26502;51.886;15.604;2023-04-26T22:27:43;100914.89;;;2.64;57.85
40794;BME280;26502;51.886;15.604;2023-04-26T22:32:50;100916.13;;;2.63;57.92
40794;BME280;26502;51.886;15.604;2023-04-26T22:37:57;100921.21;;;2.63;58.18
40794;BME280;26502;51.886;15.604;2023-04-26T22:43:04;100923.68;;;2.67;58.20
40794;BME280;26502;51.886;15.604;2023-04-26T22:48:11;100924.71;;;2.63;58.21
40794;BME280;26502;51.886;15.604;2023-04-26T22:53:17;100931.98;;;2.45;58.28
40794;BME280;26502;51.886;15.604;2023-04-26T22:58:24;100934.55;;;2.29;58.59
40794;BME280;26502;51.886;15.604;2023-04-26T23:03:33;100934.55;;;2.29;58.78
40794;BME280;26502;51.886;15.604;2023-04-26T23:08:40;100936.64;;;2.27;58.86
40794;BME280;26502;51.886;15.604;2023-04-26T23:13:47;100938.86;;;2.17;59.01
40794;BME280;26502;51.886;15.604;2023-04-26T23:18:56;100943.86;;;2.06;59.11
40794;BME280;26502;51.886;15.604;2023-04-26T23:24:02;100943.85;;;2.03;59.28
40794;BME280;26502;51.886;15.604;2023-04-26T23:29:08;100947.33;;;2.00;59.36
40794;BME280;26502;51.886;15.604;2023-04-26T23:34:15;100951.27;;;1.88;59.43
40794;BME280;26502;51.886;15.604;2023-04-26T23:39:21;100946.34;;;1.84;59.69
40794;BME280;26502;51.886;15.604;2023-04-26T23:44:27;100944.27;;;1.87;59.85
40794;BME280;26502;51.886;15.604;2023-04-26T23:49:34;100944.36;;;1.78;59.83
40794;BME280;26502;51.886;15.604;2023-04-26T23:54:41;100945.67;;;1.68;60.04
40794;BME280;26502;51.886;15.604;2023-04-26T23:59:47;100947.52;;;1.58;60.26
